sensor_id;sensor_type;location;lat;lon;timestamp;pressure;altitude;pressure_sealevel;temperature;humidity
71109;BME280;59614;51.012;-1.648;2023-01-26T00:02:16;101977.72;;;4.02;97.65
71109;BME280;59614;51.012;-1.648;2023-01-26T00:04:42;101981.13;;;4.00;98.20
71109;BME280;59614;51.012;-1.648;2023-01-26T00:07:07;101986.47;;;4.03;97.98
71109;BME280;59614;51.012;-1.648;2023-01-26T00:09:32;101982.50;;;4.14;97.47
71109;BME280;59614;51.012;-1.648;2023-01-26T00:11:58;101988.34;;;4.07;97.48
71109;BME280;59614;51.012;-1.648;2023-01-26T00:14:23;102000.41;;;4.04;97.26
71109;BME280;59614;51.012;-1.648;2023-01-26T00:16:49;102001.16;;;3.99;96.98
71109;BME280;59614;51.012;-1.648;2023-01-26T00:19:14;101992.53;;;4.02;97.64
71109;BME280;59614;51.012;-1.648;2023-01-26T00:21:39;102007.44;;;4.06;96.88
71109;BME280;59614;51.012;-1.648;2023-01-26T00:24:05;102008.06;;;3.99;97.58
71109;BME280;59614;51.012;-1.648;2023-01-26T00:26:31;102008.19;;;4.02;96.56
71109;BME280;59614;51.012;-1.648;2023-01-26T00:28:59;102007.13;;;3.97;96.73
71109;BME280;59614;51.012;-1.648;2023-01-26T00:31:26;102004.31;;;3.91;97.35
71109;BME280;59614;51.012;-1.648;2023-01-26T00:33:53;102010.41;;;3.91;97.41
71109;BME280;59614;51.012;-1.648;2023-01-26T00:36:19;102011.19;;;3.89;97.16
71109;BME280;59614;51.012;-1.648;2023-01-26T00:38:44;102007.63;;;3.86;97.03
71109;BME280;59614;51.012;-1.648;2023-01-26T00:41:10;102012.84;;;3.86;97.35
71109;BME280;59614;51.012;-1.648;2023-01-26T00:43:58;102000.28;;;3.76;97.70
71109;BME280;59614;51.012;-1.648;2023-01-26T00:46:24;102003.06;;;3.81;98.18
71109;BME280;59614;51.012;-1.648;2023-01-26T00:48:49;101998.63;;;3.78;97.88
71109;BME280;59614;51.012;-1.648;2023-01-26T00:51:15;101989.72;;;3.73;97.78
71109;BME280;59614;51.012;-1.648;2023-01-26T00:53:40;101995.91;;;3.75;97.66
71109;BME280;59614;51.012;-1.648;2023-01-26T00:56:06;101992.94;;;3.66;97.73
71109;BME280;59614;51.012;-1.648;2023-01-26T00:58:32;101995.84;;;3.74;97.37
71109;BME280;59614;51.012;-1.648;2023-01-26T01:00:57;101996.03;;;3.78;97.31
71109;BME280;59614;51.012;-1.648;2023-01-26T01:03:22;101995.19;;;3.79;97.04
71109;BME280;59614;51.012;-1.648;2023-01-26T01:05:48;102004.56;;;3.74;97.52
71109;BME280;59614;51.012;-1.648;2023-01-26T01:08:13;101998.19;;;3.66;97.30
71109;BME280;59614;51.012;-1.648;2023-01-26T01:10:39;102000.50;;;3.58;98.09
71109;BME280;59614;51.012;-1.648;2023-01-26T01:13:04;102006.78;;;3.63;98.05
71109;BME280;59614;51.012;-1.648;2023-01-26T01:15:29;101998.72;;;3.57;98.27
71109;BME280;59614;51.012;-1.648;2023-01-26T01:17:55;101993.47;;;3.57;97.93
71109;BME280;59614;51.012;-1.648;2023-01-26T01:20:20;101990.03;;;3.58;98.25
71109;BME280;59614;51.012;-1.648;2023-01-26T01:22:46;101986.59;;;3.59;98.05
71109;BME280;59614;51.012;-1.648;2023-01-26T01:25:11;101998.00;;;3.61;97.87
71109;BME280;59614;51.012;-1.648;2023-01-26T01:27:37;102006.25;;;3.49;97.64
71109;BME280;59614;51.012;-1.648;2023-01-26T01:30:03;101999.94;;;3.43;98.34
71109;BME280;59614;51.012;-1.648;2023-01-26T01:32:36;101996.38;;;3.40;97.93
71109;BME280;59614;51.012;-1.648;2023-01-26T01:35:04;101995.09;;;3.31;98.58
71109;BME280;59614;51.012;-1.648;2023-01-26T01:37:29;101994.41;;;3.35;98.71
71109;BME280;59614;51.012;-1.648;2023-01-26T01:39:55;102000.19;;;3.28;98.37
71109;BME280;59614;51.012;-1.648;2023-01-26T01:42:21;102004.41;;;3.24;98.49
71109;BME280;59614;51.012;-1.648;2023-01-26T01:47:43;102002.91;;;3.08;98.93
71109;BME280;59614;51.012;-1.648;2023-01-26T01:50:14;102003.19;;;3.14;98.65
71109;BME280;59614;51.012;-1.648;2023-01-26T01:52:41;102003.81;;;3.08;98.96
71109;BME280;59614;51.012;-1.648;2023-01-26T01:55:09;102007.25;;;3.07;98.58
71109;BME280;59614;51.012;-1.648;2023-01-26T01:57:43;102009.09;;;3.10;98.84
71109;BME280;59614;51.012;-1.648;2023-01-26T02:00:14;102013.22;;;3.05;99.12
71109;BME280;59614;51.012;-1.648;2023-01-26T02:02:42;102011.56;;;3.07;97.73
71109;BME280;59614;51.012;-1.648;2023-01-26T02:05:42;102002.88;;;3.06;98.11
71109;BME280;59614;51.012;-1.648;2023-01-26T02:08:01;102018.69;;;3.11;98.21
71109;BME280;59614;51.012;-1.648;2023-01-26T02:10:27;102011.75;;;3.12;97.79
71109;BME280;59614;51.012;-1.648;2023-01-26T02:12:54;102018.44;;;3.05;97.81
71109;BME280;59614;51.012;-1.648;2023-01-26T02:15:21;102015.91;;;3.06;98.27
71109;BME280;59614;51.012;-1.648;2023-01-26T02:17:46;102012.56;;;3.11;97.50
71109;BME280;59614;51.012;-1.648;2023-01-26T02:23:08;102007.94;;;3.24;96.68
71109;BME280;59614;51.012;-1.648;2023-01-26T02:28:03;102020.56;;;3.36;94.95
71109;BME280;59614;51.012;-1.648;2023-01-26T02:30:29;102012.13;;;3.44;94.39
71109;BME280;59614;51.012;-1.648;2023-01-26T02:32:55;102017.53;;;3.48;93.97
71109;BME280;59614;51.012;-1.648;2023-01-26T02:35:21;102014.69;;;3.42;93.85
71109;BME280;59614;51.012;-1.648;2023-01-26T02:37:46;102016.34;;;3.40;93.77
71109;BME280;59614;51.012;-1.648;2023-01-26T02:42:45;102018.00;;;3.38;93.30
71109;BME280;59614;51.012;-1.648;2023-01-26T02:45:14;102016.41;;;3.42;92.82
71109;BME280;59614;51.012;-1.648;2023-01-26T02:47:41;102025.81;;;3.38;92.89
71109;BME280;59614;51.012;-1.648;2023-01-26T02:50:08;102032.66;;;3.34;93.00
71109;BME280;59614;51.012;-1.648;2023-01-26T02:52:34;102035.44;;;3.39;93.01
71109;BME280;59614;51.012;-1.648;2023-01-26T02:54:59;102031.50;;;3.28;93.61
71109;BME280;59614;51.012;-1.648;2023-01-26T02:57:44;102039.47;;;3.31;93.36
71109;BME280;59614;51.012;-1.648;2023-01-26T03:00:15;102036.38;;;3.41;92.00
71109;BME280;59614;51.012;-1.648;2023-01-26T03:02:41;102043.72;;;3.29;91.95
71109;BME280;59614;51.012;-1.648;2023-01-26T03:05:07;102034.50;;;3.37;92.15
71109;BME280;59614;51.012;-1.648;2023-01-26T03:07:33;102040.28;;;3.30;91.91
71109;BME280;59614;51.012;-1.648;2023-01-26T03:09:59;102041.59;;;3.41;91.51
71109;BME280;59614;51.012;-1.648;2023-01-26T03:12:25;102040.91;;;3.45;91.33
71109;BME280;59614;51.012;-1.648;2023-01-26T03:14:51;102045.31;;;3.46;91.26
71109;BME280;59614;51.012;-1.648;2023-01-26T03:17:36;102030.13;;;3.36;91.68
71109;BME280;59614;51.012;-1.648;2023-01-26T03:20:02;102031.94;;;3.38;91.09
71109;BME280;59614;51.012;-1.648;2023-01-26T03:22:47;102031.13;;;3.39;91.39
71109;BME280;59614;51.012;-1.648;2023-01-26T03:25:31;102037.13;;;3.37;91.16
71109;BME280;59614;51.012;-1.648;2023-01-26T03:28:15;102035.22;;;3.33;91.44
71109;BME280;59614;51.012;-1.648;2023-01-26T03:30:49;102035.91;;;3.29;91.89
71109;BME280;59614;51.012;-1.648;2023-01-26T03:33:16;102033.19;;;3.26;91.75
71109;BME280;59614;51.012;-1.648;2023-01-26T03:35:41;102036.81;;;3.29;91.73
71109;BME280;59614;51.012;-1.648;2023-01-26T03:38:07;102033.44;;;3.32;91.18
71109;BME280;59614;51.012;-1.648;2023-01-26T03:40:32;102048.22;;;3.31;90.68
71109;BME280;59614;51.012;-1.648;2023-01-26T03:43:16;102040.06;;;3.23;91.10
71109;BME280;59614;51.012;-1.648;2023-01-26T03:46:05;102036.63;;;3.24;91.06
71109;BME280;59614;51.012;-1.648;2023-01-26T03:48:49;102052.09;;;3.20;91.95
71109;BME280;59614;51.012;-1.648;2023-01-26T03:51:33;102054.81;;;3.23;90.93
71109;BME280;59614;51.012;-1.648;2023-01-26T03:54:17;102061.47;;;3.15;91.47
71109;BME280;59614;51.012;-1.648;2023-01-26T03:57:02;102068.47;;;3.16;91.31
71109;BME280;59614;51.012;-1.648;2023-01-26T03:59:27;102060.81;;;3.20;90.77
71109;BME280;59614;51.012;-1.648;2023-01-26T04:02:10;102064.75;;;3.11;92.05
71109;BME280;59614;51.012;-1.648;2023-01-26T04:04:54;102058.16;;;2.98;92.47
71109;BME280;59614;51.012;-1.648;2023-01-26T04:07:38;102054.84;;;3.02;92.17
71109;BME280;59614;51.012;-1.648;2023-01-26T04:10:23;102064.84;;;2.91;92.07
71109;BME280;59614;51.012;-1.648;2023-01-26T04:12:48;102059.56;;;2.89;92.19
71109;BME280;59614;51.012;-1.648;2023-01-26T04:15:32;102062.91;;;3.08;91.71
71109;BME280;59614;51.012;-1.648;2023-01-26T04:18:18;102068.47;;;3.16;90.99
71109;BME280;59614;51.012;-1.648;2023-01-26T04:21:03;102066.16;;;3.23;91.06
71109;BME280;59614;51.012;-1.648;2023-01-26T04:23:47;102060.03;;;3.23;90.65
71109;BME280;59614;51.012;-1.648;2023-01-26T04:26:12;102062.13;;;3.32;90.99
71109;BME280;59614;51.012;-1.648;2023-01-26T04:28:38;102065.53;;;3.29;90.19
71109;BME280;59614;51.012;-1.648;2023-01-26T04:31:03;102059.50;;;3.09;91.25
71109;BME280;59614;51.012;-1.648;2023-01-26T04:33:29;102054.72;;;2.99;91.48
71109;BME280;59614;51.012;-1.648;2023-01-26T04:35:55;102065.66;;;3.11;92.35
71109;BME280;59614;51.012;-1.648;2023-01-26T04:38:20;102058.91;;;3.16;90.94
71109;BME280;59614;51.012;-1.648;2023-01-26T04:40:52;102064.38;;;3.01;92.42
71109;BME280;59614;51.012;-1.648;2023-01-26T04:43:18;102064.28;;;3.21;91.62
71109;BME280;59614;51.012;-1.648;2023-01-26T04:45:43;102071.28;;;3.43;90.34
71109;BME280;59614;51.012;-1.648;2023-01-26T04:48:08;102073.06;;;3.44;89.90
71109;BME280;59614;51.012;-1.648;2023-01-26T04:50:34;102070.91;;;3.34;90.00
71109;BME280;59614;51.012;-1.648;2023-01-26T04:52:59;102070.38;;;2.99;90.88
71109;BME280;59614;51.012;-1.648;2023-01-26T04:55:25;102060.56;;;3.14;92.19
71109;BME280;59614;51.012;-1.648;2023-01-26T04:57:50;102072.34;;;3.26;90.92
71109;BME280;59614;51.012;-1.648;2023-01-26T05:00:16;102086.41;;;3.29;90.63
71109;BME280;59614;51.012;-1.648;2023-01-26T05:02:41;102077.09;;;3.36;90.16
71109;BME280;59614;51.012;-1.648;2023-01-26T05:05:07;102077.19;;;3.39;89.64
71109;BME280;59614;51.012;-1.648;2023-01-26T05:07:33;102089.09;;;3.32;90.05
71109;BME280;59614;51.012;-1.648;2023-01-26T05:09:58;102093.63;;;3.36;90.34
71109;BME280;59614;51.012;-1.648;2023-01-26T05:12:23;102098.66;;;3.32;89.83
71109;BME280;59614;51.012;-1.648;2023-01-26T05:14:58;102088.88;;;3.26;89.99
71109;BME280;59614;51.012;-1.648;2023-01-26T05:17:23;102088.38;;;3.35;90.22
71109;BME280;59614;51.012;-1.648;2023-01-26T05:19:48;102078.47;;;3.28;90.15
71109;BME280;59614;51.012;-1.648;2023-01-26T05:22:14;102088.75;;;3.23;90.25
71109;BME280;59614;51.012;-1.648;2023-01-26T05:24:39;102079.22;;;3.23;90.20
71109;BME280;59614;51.012;-1.648;2023-01-26T05:27:05;102086.25;;;3.26;90.33
71109;BME280;59614;51.012;-1.648;2023-01-26T05:29:46;102083.69;;;3.28;89.96
71109;BME280;59614;51.012;-1.648;2023-01-26T05:32:11;102088.69;;;3.21;90.57
71109;BME280;59614;51.012;-1.648;2023-01-26T05:34:37;102080.84;;;3.21;90.10
71109;BME280;59614;51.012;-1.648;2023-01-26T05:37:03;102074.69;;;3.19;90.61
71109;BME280;59614;51.012;-1.648;2023-01-26T05:39:28;102087.41;;;3.12;91.15
71109;BME280;59614;51.012;-1.648;2023-01-26T05:41:53;102088.56;;;3.18;90.39
71109;BME280;59614;51.012;-1.648;2023-01-26T05:44:22;102086.91;;;3.20;90.62
71109;BME280;59614;51.012;-1.648;2023-01-26T05:46:49;102073.22;;;3.05;91.35
71109;BME280;59614;51.012;-1.648;2023-01-26T05:49:14;102080.22;;;3.06;91.15
71109;BME280;59614;51.012;-1.648;2023-01-26T05:51:40;102068.13;;;3.08;91.45
71109;BME280;59614;51.012;-1.648;2023-01-26T05:54:05;102073.50;;;3.11;90.95
71109;BME280;59614;51.012;-1.648;2023-01-26T05:56:30;102077.50;;;3.03;91.42
71109;BME280;59614;51.012;-1.648;2023-01-26T05:58:56;102078.19;;;2.99;91.61
71109;BME280;59614;51.012;-1.648;2023-01-26T06:01:21;102076.59;;;3.02;91.56
71109;BME280;59614;51.012;-1.648;2023-01-26T06:03:47;102079.03;;;2.98;91.25
71109;BME280;59614;51.012;-1.648;2023-01-26T06:06:12;102077.19;;;2.95;91.42
71109;BME280;59614;51.012;-1.648;2023-01-26T06:08:37;102084.09;;;2.94;91.77
71109;BME280;59614;51.012;-1.648;2023-01-26T06:11:03;102092.00;;;2.96;92.10
71109;BME280;59614;51.012;-1.648;2023-01-26T06:13:28;102094.44;;;2.91;91.81
71109;BME280;59614;51.012;-1.648;2023-01-26T06:15:54;102092.66;;;2.90;91.66
71109;BME280;59614;51.012;-1.648;2023-01-26T06:18:20;102082.94;;;2.88;92.43
71109;BME280;59614;51.012;-1.648;2023-01-26T06:20:45;102083.03;;;2.89;91.55
71109;BME280;59614;51.012;-1.648;2023-01-26T06:23:10;102088.69;;;2.79;92.00
71109;BME280;59614;51.012;-1.648;2023-01-26T06:25:39;102106.00;;;2.77;92.12
71109;BME280;59614;51.012;-1.648;2023-01-26T06:28:04;102107.50;;;2.72;92.16
71109;BME280;59614;51.012;-1.648;2023-01-26T06:30:30;102112.78;;;2.73;91.97
71109;BME280;59614;51.012;-1.648;2023-01-26T06:32:56;102114.00;;;2.82;92.07
71109;BME280;59614;51.012;-1.648;2023-01-26T06:35:21;102121.34;;;2.71;92.32
71109;BME280;59614;51.012;-1.648;2023-01-26T06:37:48;102120.66;;;2.75;92.21
71109;BME280;59614;51.012;-1.648;2023-01-26T06:40:14;102129.06;;;2.68;92.02
71109;BME280;59614;51.012;-1.648;2023-01-26T06:42:45;102131.53;;;2.65;92.42
71109;BME280;59614;51.012;-1.648;2023-01-26T06:45:11;102133.25;;;2.64;92.75
71109;BME280;59614;51.012;-1.648;2023-01-26T06:47:36;102136.75;;;2.65;92.75
71109;BME280;59614;51.012;-1.648;2023-01-26T06:50:02;102148.03;;;2.65;92.20
71109;BME280;59614;51.012;-1.648;2023-01-26T06:52:31;102142.78;;;2.63;92.52
71109;BME280;59614;51.012;-1.648;2023-01-26T06:54:58;102145.44;;;2.65;92.63
71109;BME280;59614;51.012;-1.648;2023-01-26T06:57:24;102149.09;;;2.69;92.57
71109;BME280;59614;51.012;-1.648;2023-01-26T06:59:50;102146.50;;;2.69;93.13
71109;BME280;59614;51.012;-1.648;2023-01-26T07:02:18;102145.53;;;2.67;92.78
71109;BME280;59614;51.012;-1.648;2023-01-26T07:04:44;102152.38;;;2.65;92.97
71109;BME280;59614;51.012;-1.648;2023-01-26T07:07:10;102165.28;;;2.61;92.68
71109;BME280;59614;51.012;-1.648;2023-01-26T07:09:35;102167.75;;;2.58;93.38
71109;BME280;59614;51.012;-1.648;2023-01-26T07:12:00;102178.72;;;2.71;92.78
71109;BME280;59614;51.012;-1.648;2023-01-26T07:14:26;102166.94;;;2.79;92.84
71109;BME280;59614;51.012;-1.648;2023-01-26T07:16:51;102176.44;;;2.78;92.53
71109;BME280;59614;51.012;-1.648;2023-01-26T07:19:17;102169.25;;;2.73;93.34
71109;BME280;59614;51.012;-1.648;2023-01-26T07:21:42;102168.56;;;2.77;93.38
71109;BME280;59614;51.012;-1.648;2023-01-26T07:24:08;102164.22;;;2.77;93.03
71109;BME280;59614;51.012;-1.648;2023-01-26T07:26:34;102162.25;;;2.72;93.40
71109;BME280;59614;51.012;-1.648;2023-01-26T07:28:59;102174.47;;;2.73;92.97
71109;BME280;59614;51.012;-1.648;2023-01-26T07:31:24;102179.06;;;2.78;93.03
71109;BME280;59614;51.012;-1.648;2023-01-26T07:33:50;102188.75;;;2.81;92.93
71109;BME280;59614;51.012;-1.648;2023-01-26T07:36:15;102186.16;;;2.81;93.28
71109;BME280;59614;51.012;-1.648;2023-01-26T07:38:41;102180.31;;;2.87;93.00
71109;BME280;59614;51.012;-1.648;2023-01-26T07:41:08;102185.78;;;2.93;92.39
71109;BME280;59614;51.012;-1.648;2023-01-26T07:43:35;102193.66;;;2.94;91.80
71109;BME280;59614;51.012;-1.648;2023-01-26T07:46:01;102187.41;;;2.91;92.07
71109;BME280;59614;51.012;-1.648;2023-01-26T07:48:26;102200.94;;;2.82;92.53
71109;BME280;59614;51.012;-1.648;2023-01-26T07:50:57;102207.47;;;2.72;93.04
71109;BME280;59614;51.012;-1.648;2023-01-26T07:53:23;102195.25;;;2.71;92.63
71109;BME280;59614;51.012;-1.648;2023-01-26T07:55:50;102201.16;;;2.67;92.64
71109;BME280;59614;51.012;-1.648;2023-01-26T07:58:16;102197.31;;;2.78;91.85
71109;BME280;59614;51.012;-1.648;2023-01-26T08:00:42;102203.09;;;2.71;92.42
71109;BME280;59614;51.012;-1.648;2023-01-26T08:03:12;102209.88;;;2.68;92.15
71109;BME280;59614;51.012;-1.648;2023-01-26T08:05:37;102206.00;;;2.59;92.40
71109;BME280;59614;51.012;-1.648;2023-01-26T08:08:03;102200.13;;;2.63;92.31
71109;BME280;59614;51.012;-1.648;2023-01-26T08:10:29;102183.59;;;2.63;91.97
71109;BME280;59614;51.012;-1.648;2023-01-26T08:12:58;102177.44;;;2.61;92.24
71109;BME280;59614;51.012;-1.648;2023-01-26T08:15:25;102178.31;;;2.61;92.12
71109;BME280;59614;51.012;-1.648;2023-01-26T08:17:52;102190.25;;;2.76;91.89
71109;BME280;59614;51.012;-1.648;2023-01-26T08:20:18;102198.44;;;2.64;91.96
71109;BME280;59614;51.012;-1.648;2023-01-26T08:22:43;102206.16;;;2.62;91.77
71109;BME280;59614;51.012;-1.648;2023-01-26T08:25:09;102199.97;;;2.60;91.42
71109;BME280;59614;51.012;-1.648;2023-01-26T08:27:34;102196.09;;;2.70;92.16
71109;BME280;59614;51.012;-1.648;2023-01-26T08:30:00;102202.91;;;2.88;90.53
71109;BME280;59614;51.012;-1.648;2023-01-26T08:32:25;102207.41;;;2.90;90.48
71109;BME280;59614;51.012;-1.648;2023-01-26T08:34:52;102199.50;;;2.89;90.75
71109;BME280;59614;51.012;-1.648;2023-01-26T08:37:18;102187.28;;;2.88;90.54
71109;BME280;59614;51.012;-1.648;2023-01-26T08:39:43;102182.34;;;2.94;90.47
71109;BME280;59614;51.012;-1.648;2023-01-26T08:42:09;102183.16;;;2.93;91.09
71109;BME280;59614;51.012;-1.648;2023-01-26T08:44:34;102179.31;;;3.04;90.88
71109;BME280;59614;51.012;-1.648;2023-01-26T08:46:59;102177.78;;;3.09;91.32
71109;BME280;59614;51.012;-1.648;2023-01-26T08:49:25;102182.09;;;3.09;91.08
71109;BME280;59614;51.012;-1.648;2023-01-26T08:51:50;102179.72;;;3.35;90.43
71109;BME280;59614;51.012;-1.648;2023-01-26T08:54:16;102171.09;;;3.37;90.05
71109;BME280;59614;51.012;-1.648;2023-01-26T08:56:41;102172.06;;;3.39;89.88
71109;BME280;59614;51.012;-1.648;2023-01-26T08:59:07;102181.31;;;3.31;90.43
71109;BME280;59614;51.012;-1.648;2023-01-26T09:01:32;102182.69;;;3.44;90.34
71109;BME280;59614;51.012;-1.648;2023-01-26T09:03:58;102182.38;;;3.58;89.49
71109;BME280;59614;51.012;-1.648;2023-01-26T09:06:24;102187.00;;;3.65;89.37
71109;BME280;59614;51.012;-1.648;2023-01-26T09:08:51;102190.13;;;3.77;89.16
71109;BME280;59614;51.012;-1.648;2023-01-26T09:11:40;102190.81;;;3.73;88.67
71109;BME280;59614;51.012;-1.648;2023-01-26T09:14:06;102187.78;;;3.62;88.68
71109;BME280;59614;51.012;-1.648;2023-01-26T09:16:31;102200.75;;;3.82;87.87
71109;BME280;59614;51.012;-1.648;2023-01-26T09:18:56;102189.03;;;3.95;87.02
71109;BME280;59614;51.012;-1.648;2023-01-26T09:21:22;102194.84;;;4.09;86.85
71109;BME280;59614;51.012;-1.648;2023-01-26T09:23:48;102198.50;;;4.14;85.50
71109;BME280;59614;51.012;-1.648;2023-01-26T09:26:14;102194.25;;;4.40;85.55
71109;BME280;59614;51.012;-1.648;2023-01-26T09:28:39;102201.97;;;4.60;84.35
71109;BME280;59614;51.012;-1.648;2023-01-26T09:31:07;102191.78;;;4.43;84.76
71109;BME280;59614;51.012;-1.648;2023-01-26T09:33:33;102198.31;;;4.32;85.30
71109;BME280;59614;51.012;-1.648;2023-01-26T09:36:06;102194.72;;;4.53;85.02
71109;BME280;59614;51.012;-1.648;2023-01-26T09:38:32;102208.09;;;4.60;84.14
71109;BME280;59614;51.012;-1.648;2023-01-26T09:41:21;102216.34;;;4.71;84.03
71109;BME280;59614;51.012;-1.648;2023-01-26T09:43:56;102211.56;;;4.84;83.84
71109;BME280;59614;51.012;-1.648;2023-01-26T09:46:31;102226.69;;;4.92;83.67
71109;BME280;59614;51.012;-1.648;2023-01-26T09:49:30;102211.81;;;5.16;82.81
71109;BME280;59614;51.012;-1.648;2023-01-26T09:52:08;102224.88;;;5.16;81.95
71109;BME280;59614;51.012;-1.648;2023-01-26T09:54:40;102225.19;;;5.25;81.51
71109;BME280;59614;51.012;-1.648;2023-01-26T09:57:13;102219.16;;;5.28;81.84
71109;BME280;59614;51.012;-1.648;2023-01-26T10:05:03;102231.13;;;5.19;81.26
71109;BME280;59614;51.012;-1.648;2023-01-26T10:07:32;102229.38;;;5.20;82.00
71109;BME280;59614;51.012;-1.648;2023-01-26T10:09:58;102235.25;;;5.13;81.85
71109;BME280;59614;51.012;-1.648;2023-01-26T10:12:30;102223.47;;;5.25;82.10
71109;BME280;59614;51.012;-1.648;2023-01-26T10:15:51;102227.59;;;5.45;82.25
71109;BME280;59614;51.012;-1.648;2023-01-26T10:17:51;102232.31;;;5.55;81.70
71109;BME280;59614;51.012;-1.648;2023-01-26T10:23:03;102246.31;;;5.55;81.66
71109;BME280;59614;51.012;-1.648;2023-01-26T10:25:39;102245.94;;;5.45;82.74
71109;BME280;59614;51.012;-1.648;2023-01-26T10:28:32;102243.31;;;5.45;82.14
71109;BME280;59614;51.012;-1.648;2023-01-26T10:31:03;102239.66;;;5.39;83.21
71109;BME280;59614;51.012;-1.648;2023-01-26T10:33:32;102239.56;;;5.36;84.15
71109;BME280;59614;51.012;-1.648;2023-01-26T10:35:59;102242.03;;;5.85;83.09
71109;BME280;59614;51.012;-1.648;2023-01-26T10:41:04;102249.78;;;6.08;81.90
71109;BME280;59614;51.012;-1.648;2023-01-26T10:43:36;102249.34;;;5.95;82.80
71109;BME280;59614;51.012;-1.648;2023-01-26T10:46:04;102253.13;;;6.03;83.27
71109;BME280;59614;51.012;-1.648;2023-01-26T10:48:30;102271.44;;;6.02;82.85
71109;BME280;59614;51.012;-1.648;2023-01-26T10:51:13;102255.16;;;6.12;83.75
71109;BME280;59614;51.012;-1.648;2023-01-26T10:53:39;102257.00;;;5.89;83.57
71109;BME280;59614;51.012;-1.648;2023-01-26T10:58:54;102259.91;;;5.98;84.53
71109;BME280;59614;51.012;-1.648;2023-01-26T11:01:20;102254.97;;;6.06;84.16
71109;BME280;59614;51.012;-1.648;2023-01-26T11:04:03;102256.94;;;6.13;83.61
71109;BME280;59614;51.012;-1.648;2023-01-26T11:06:30;102252.69;;;6.17;83.36
71109;BME280;59614;51.012;-1.648;2023-01-26T11:09:19;102255.75;;;6.03;84.87
71109;BME280;59614;51.012;-1.648;2023-01-26T11:12:00;102262.88;;;6.08;84.63
71109;BME280;59614;51.012;-1.648;2023-01-26T11:14:27;102263.72;;;5.81;85.73
71109;BME280;59614;51.012;-1.648;2023-01-26T11:17:08;102256.63;;;6.04;86.04
71109;BME280;59614;51.012;-1.648;2023-01-26T11:22:30;102259.72;;;5.92;86.54
71109;BME280;59614;51.012;-1.648;2023-01-26T11:27:56;102255.72;;;6.31;85.85
71109;BME280;59614;51.012;-1.648;2023-01-26T11:30:52;102259.06;;;6.25;84.77
71109;BME280;59614;51.012;-1.648;2023-01-26T11:33:28;102249.41;;;6.24;85.44
71109;BME280;59614;51.012;-1.648;2023-01-26T11:47:06;102244.53;;;6.37;83.83
71109;BME280;59614;51.012;-1.648;2023-01-26T11:57:39;102230.69;;;6.41;84.91
71109;BME280;59614;51.012;-1.648;2023-01-26T12:00:20;102233.13;;;6.36;84.47
71109;BME280;59614;51.012;-1.648;2023-01-26T12:02:55;102241.56;;;6.26;86.49
71109;BME280;59614;51.012;-1.648;2023-01-26T12:05:30;102245.13;;;6.57;84.98
71109;BME280;59614;51.012;-1.648;2023-01-26T12:08:26;102226.84;;;6.60;85.31
71109;BME280;59614;51.012;-1.648;2023-01-26T12:11:12;102224.31;;;6.63;83.95
71109;BME280;59614;51.012;-1.648;2023-01-26T12:14:14;102231.38;;;6.35;85.49
71109;BME280;59614;51.012;-1.648;2023-01-26T12:19:44;102215.91;;;6.75;84.56
71109;BME280;59614;51.012;-1.648;2023-01-26T12:22:21;102208.44;;;6.58;85.00
71109;BME280;59614;51.012;-1.648;2023-01-26T12:25:01;102215.00;;;6.44;85.48
71109;BME280;59614;51.012;-1.648;2023-01-26T12:27:35;102214.06;;;6.42;85.70
71109;BME280;59614;51.012;-1.648;2023-01-26T12:33:09;102209.72;;;7.05;82.77
71109;BME280;59614;51.012;-1.648;2023-01-26T12:35:45;102200.75;;;6.97;83.75
71109;BME280;59614;51.012;-1.648;2023-01-26T12:46:13;102191.28;;;7.37;81.95
71109;BME280;59614;51.012;-1.648;2023-01-26T12:48:47;102186.72;;;7.65;80.87
71109;BME280;59614;51.012;-1.648;2023-01-26T12:51:22;102198.41;;;7.41;80.85
71109;BME280;59614;51.012;-1.648;2023-01-26T12:54:29;102198.97;;;6.95;82.59
71109;BME280;59614;51.012;-1.648;2023-01-26T12:56:54;102185.00;;;6.97;82.59
71109;BME280;59614;51.012;-1.648;2023-01-26T12:59:35;102188.53;;;6.99;82.83
71109;BME280;59614;51.012;-1.648;2023-01-26T13:04:49;102183.84;;;6.85;83.72
71109;BME280;59614;51.012;-1.648;2023-01-26T13:07:35;102188.47;;;6.95;83.20
71109;BME280;59614;51.012;-1.648;2023-01-26T13:15:25;102171.84;;;7.29;82.11
71109;BME280;59614;51.012;-1.648;2023-01-26T13:20:40;102181.00;;;7.46;81.58
71109;BME280;59614;51.012;-1.648;2023-01-26T13:23:36;102183.19;;;7.28;81.87
71109;BME280;59614;51.012;-1.648;2023-01-26T13:26:16;102172.69;;;7.28;82.82
71109;BME280;59614;51.012;-1.648;2023-01-26T13:28:42;102173.22;;;7.16;82.28
71109;BME280;59614;51.012;-1.648;2023-01-26T13:31:09;102176.69;;;6.79;83.26
71109;BME280;59614;51.012;-1.648;2023-01-26T13:33:35;102183.91;;;6.88;83.83
71109;BME280;59614;51.012;-1.648;2023-01-26T13:36:11;102181.69;;;7.04;83.42
71109;BME280;59614;51.012;-1.648;2023-01-26T13:38:43;102196.78;;;6.79;84.30
71109;BME280;59614;51.012;-1.648;2023-01-26T13:41:19;102184.88;;;6.60;84.95
71109;BME280;59614;51.012;-1.648;2023-01-26T13:46:38;102182.28;;;6.92;85.51
71109;BME280;59614;51.012;-1.648;2023-01-26T13:49:26;102190.56;;;6.75;85.06
71109;BME280;59614;51.012;-1.648;2023-01-26T13:51:52;102188.25;;;6.86;84.95
71109;BME280;59614;51.012;-1.648;2023-01-26T13:54:18;102182.19;;;6.57;86.31
71109;BME280;59614;51.012;-1.648;2023-01-26T13:57:04;102175.28;;;6.60;86.61
71109;BME280;59614;51.012;-1.648;2023-01-26T13:59:30;102177.94;;;6.62;86.75
71109;BME280;59614;51.012;-1.648;2023-01-26T14:01:58;102173.00;;;6.73;86.21
71109;BME280;59614;51.012;-1.648;2023-01-26T14:04:28;102166.78;;;7.03;85.15
71109;BME280;59614;51.012;-1.648;2023-01-26T14:07:01;102166.19;;;7.13;83.61
71109;BME280;59614;51.012;-1.648;2023-01-26T14:09:30;102171.91;;;7.32;83.64
71109;BME280;59614;51.012;-1.648;2023-01-26T14:12:01;102175.97;;;7.55;82.68
71109;BME280;59614;51.012;-1.648;2023-01-26T14:14:34;102167.31;;;7.23;82.41
71109;BME280;59614;51.012;-1.648;2023-01-26T14:17:06;102176.75;;;6.83;83.36
71109;BME280;59614;51.012;-1.648;2023-01-26T14:19:38;102171.34;;;7.10;82.85
71109;BME280;59614;51.012;-1.648;2023-01-26T14:22:11;102169.19;;;6.93;83.60